sensor_id;sensor_type;location;lat;lon;timestamp;P1;durP1;ratioP1;P2;durP2;ratioP2
41059;SDS011;26811;53.160;8.202;2023-08-20T00:01:32;19.55;;;10.32;;
41059;SDS011;26811;53.160;8.202;2023-08-20T00:06:33;18.13;;;9.98;;
41059;SDS011;26811;53.160;8.202;2023-08-20T00:11:34;19.10;;;10.32;;
41059;SDS011;26811;53.160;8.202;2023-08-20T00:16:35;19.65;;;10.65;;
41059;SDS011;26811;53.160;8.202;2023-08-20T00:21:39;19.15;;;10.45;;
41059;SDS011;26811;53.160;8.202;2023-08-20T00:26:41;19.95;;;10.57;;
41059;SDS011;26811;53.160;8.202;2023-08-20T00:31:42;21.05;;;10.45;;
41059;SDS011;26811;53.160;8.202;2023-08-20T00:36:42;21.33;;;10.05;;
41059;SDS011;26811;53.160;8.202;2023-08-20T00:41:43;14.93;;;9.55;;
41059;SDS011;26811;53.160;8.202;2023-08-20T00:46:43;20.20;;;9.70;;
41059;SDS011;26811;53.160;8.202;2023-08-20T00:51:44;15.52;;;9.18;;
41059;SDS011;26811;53.160;8.202;2023-08-20T00:56:45;17.13;;;9.02;;
41059;SDS011;26811;53.160;8.202;2023-08-20T01:01:47;19.02;;;10.05;;
41059;SDS011;26811;53.160;8.202;2023-08-20T01:06:55;19.65;;;9.38;;
41059;SDS011;26811;53.160;8.202;2023-08-20T01:12:24;22.83;;;9.25;;
41059;SDS011;26811;53.160;8.202;2023-08-20T01:17:26;20.40;;;9.03;;
41059;SDS011;26811;53.160;8.202;2023-08-20T01:22:40;17.75;;;9.50;;
41059;SDS011;26811;53.160;8.202;2023-08-20T01:28:22;24.08;;;9.77;;
41059;SDS011;26811;53.160;8.202;2023-08-20T01:33:23;17.88;;;9.30;;
41059;SDS011;26811;53.160;8.202;2023-08-20T01:38:26;18.27;;;10.50;;
41059;SDS011;26811;53.160;8.202;2023-08-20T01:43:27;23.58;;;11.05;;
41059;SDS011;26811;53.160;8.202;2023-08-20T01:48:27;19.65;;;10.63;;
41059;SDS011;26811;53.160;8.202;2023-08-20T01:53:28;18.95;;;10.55;;
41059;SDS011;26811;53.160;8.202;2023-08-20T01:58:28;20.40;;;10.27;;
41059;SDS011;26811;53.160;8.202;2023-08-20T02:03:29;16.83;;;10.68;;
41059;SDS011;26811;53.160;8.202;2023-08-20T02:08:29;20.90;;;10.65;;
41059;SDS011;26811;53.160;8.202;2023-08-20T02:13:30;23.73;;;11.27;;
41059;SDS011;26811;53.160;8.202;2023-08-20T02:18:31;22.55;;;10.57;;
41059;SDS011;26811;53.160;8.202;2023-08-20T02:23:31;19.90;;;10.60;;
41059;SDS011;26811;53.160;8.202;2023-08-20T02:28:32;18.83;;;10.38;;
41059;SDS011;26811;53.160;8.202;2023-08-20T02:33:32;17.90;;;10.85;;
41059;SDS011;26811;53.160;8.202;2023-08-20T02:38:33;20.23;;;10.63;;
41059;SDS011;26811;53.160;8.202;2023-08-20T02:43:33;20.40;;;10.25;;
41059;SDS011;26811;53.160;8.202;2023-08-20T02:48:34;21.10;;;10.13;;
41059;SDS011;26811;53.160;8.202;2023-08-20T02:53:34;17.70;;;9.60;;
41059;SDS011;26811;53.160;8.202;2023-08-20T02:58:35;16.90;;;9.25;;
41059;SDS011;26811;53.160;8.202;2023-08-20T03:03:35;21.33;;;9.50;;
41059;SDS011;26811;53.160;8.202;2023-08-20T03:08:37;20.10;;;10.53;;
41059;SDS011;26811;53.160;8.202;2023-08-20T03:13:38;17.33;;;9.10;;
41059;SDS011;26811;53.160;8.202;2023-08-20T03:18:38;19.52;;;9.10;;
41059;SDS011;26811;53.160;8.202;2023-08-20T03:23:39;17.20;;;9.18;;
41059;SDS011;26811;53.160;8.202;2023-08-20T03:28:39;18.60;;;9.68;;
41059;SDS011;26811;53.160;8.202;2023-08-20T03:33:40;18.73;;;9.88;;
41059;SDS011;26811;53.160;8.202;2023-08-20T03:38:40;15.65;;;8.52;;
41059;SDS011;26811;53.160;8.202;2023-08-20T03:43:41;18.88;;;8.88;;
41059;SDS011;26811;53.160;8.202;2023-08-20T03:48:42;21.65;;;10.27;;
41059;SDS011;26811;53.160;8.202;2023-08-20T03:53:43;25.73;;;10.63;;
41059;SDS011;26811;53.160;8.202;2023-08-20T03:58:43;27.92;;;13.23;;
41059;SDS011;26811;53.160;8.202;2023-08-20T04:03:45;33.58;;;13.82;;
41059;SDS011;26811;53.160;8.202;2023-08-20T04:08:46;28.33;;;14.13;;
41059;SDS011;26811;53.160;8.202;2023-08-20T04:13:47;27.25;;;12.98;;
41059;SDS011;26811;53.160;8.202;2023-08-20T04:18:48;27.30;;;13.00;;
41059;SDS011;26811;53.160;8.202;2023-08-20T04:23:49;24.80;;;12.77;;
41059;SDS011;26811;53.160;8.202;2023-08-20T04:28:49;24.90;;;11.75;;
41059;SDS011;26811;53.160;8.202;2023-08-20T04:33:50;25.13;;;12.48;;
41059;SDS011;26811;53.160;8.202;2023-08-20T04:38:51;25.48;;;11.85;;
41059;SDS011;26811;53.160;8.202;2023-08-20T04:43:51;24.30;;;12.00;;
41059;SDS011;26811;53.160;8.202;2023-08-20T04:48:51;24.98;;;11.45;;
41059;SDS011;26811;53.160;8.202;2023-08-20T04:53:52;26.15;;;12.73;;
41059;SDS011;26811;53.160;8.202;2023-08-20T04:58:52;24.95;;;11.55;;
41059;SDS011;26811;53.160;8.202;2023-08-20T05:03:53;22.50;;;11.98;;
41059;SDS011;26811;53.160;8.202;2023-08-20T05:08:53;24.23;;;12.38;;
41059;SDS011;26811;53.160;8.202;2023-08-20T05:13:55;23.52;;;12.60;;
41059;SDS011;26811;53.160;8.202;2023-08-20T05:18:55;29.08;;;13.48;;
41059;SDS011;26811;53.160;8.202;2023-08-20T05:23:56;30.98;;;14.70;;
41059;SDS011;26811;53.160;8.202;2023-08-20T05:28:56;28.55;;;15.82;;
41059;SDS011;26811;53.160;8.202;2023-08-20T05:33:57;28.98;;;15.75;;
41059;SDS011;26811;53.160;8.202;2023-08-20T05:38:57;29.60;;;15.50;;
41059;SDS011;26811;53.160;8.202;2023-08-20T05:43:58;36.35;;;16.52;;
41059;SDS011;26811;53.160;8.202;2023-08-20T05:48:58;32.03;;;16.70;;
41059;SDS011;26811;53.160;8.202;2023-08-20T05:53:59;28.83;;;14.25;;
41059;SDS011;26811;53.160;8.202;2023-08-20T05:58:59;33.15;;;13.90;;
41059;SDS011;26811;53.160;8.202;2023-08-20T06:04:00;38.95;;;15.52;;
41059;SDS011;26811;53.160;8.202;2023-08-20T06:09:01;30.85;;;14.85;;
41059;SDS011;26811;53.160;8.202;2023-08-20T06:14:02;25.40;;;13.13;;
41059;SDS011;26811;53.160;8.202;2023-08-20T06:19:03;28.90;;;14.00;;
41059;SDS011;26811;53.160;8.202;2023-08-20T06:24:03;29.48;;;13.85;;
41059;SDS011;26811;53.160;8.202;2023-08-20T06:29:04;32.78;;;13.98;;
41059;SDS011;26811;53.160;8.202;2023-08-20T06:34:05;35.50;;;14.43;;
41059;SDS011;26811;53.160;8.202;2023-08-20T06:39:05;32.13;;;13.27;;
41059;SDS011;26811;53.160;8.202;2023-08-20T06:44:06;31.40;;;12.75;;
41059;SDS011;26811;53.160;8.202;2023-08-20T06:49:06;26.60;;;12.70;;
41059;SDS011;26811;53.160;8.202;2023-08-20T06:54:07;27.83;;;12.45;;
41059;SDS011;26811;53.160;8.202;2023-08-20T06:59:07;25.05;;;11.52;;
41059;SDS011;26811;53.160;8.202;2023-08-20T07:04:08;22.08;;;11.52;;
41059;SDS011;26811;53.160;8.202;2023-08-20T07:09:08;24.30;;;10.98;;
41059;SDS011;26811;53.160;8.202;2023-08-20T07:14:09;25.45;;;10.60;;
41059;SDS011;26811;53.160;8.202;2023-08-20T07:19:12;28.33;;;10.25;;
41059;SDS011;26811;53.160;8.202;2023-08-20T07:24:16;25.27;;;9.98;;
41059;SDS011;26811;53.160;8.202;2023-08-20T07:29:16;24.95;;;9.30;;
41059;SDS011;26811;53.160;8.202;2023-08-20T07:34:19;20.02;;;9.48;;
41059;SDS011;26811;53.160;8.202;2023-08-20T07:39:20;22.52;;;8.40;;
41059;SDS011;26811;53.160;8.202;2023-08-20T07:44:21;16.80;;;7.20;;
41059;SDS011;26811;53.160;8.202;2023-08-20T07:49:21;23.05;;;7.93;;
41059;SDS011;26811;53.160;8.202;2023-08-20T07:54:22;24.63;;;6.65;;
41059;SDS011;26811;53.160;8.202;2023-08-20T07:59:22;15.82;;;6.55;;
41059;SDS011;26811;53.160;8.202;2023-08-20T08:04:23;22.88;;;7.25;;
41059;SDS011;26811;53.160;8.202;2023-08-20T08:09:27;15.93;;;5.75;;
41059;SDS011;26811;53.160;8.202;2023-08-20T08:14:29;25.27;;;6.20;;
41059;SDS011;26811;53.160;8.202;2023-08-20T08:19:29;18.27;;;4.90;;
41059;SDS011;26811;53.160;8.202;2023-08-20T08:24:30;17.00;;;5.07;;
41059;SDS011;26811;53.160;8.202;2023-08-20T08:29:30;13.35;;;4.63;;
41059;SDS011;26811;53.160;8.202;2023-08-20T08:34:31;15.73;;;4.90;;
41059;SDS011;26811;53.160;8.202;2023-08-20T08:39:32;22.77;;;5.27;;
41059;SDS011;26811;53.160;8.202;2023-08-20T08:44:33;17.52;;;5.68;;
41059;SDS011;26811;53.160;8.202;2023-08-20T08:49:34;23.05;;;5.60;;
41059;SDS011;26811;53.160;8.202;2023-08-20T08:54:35;18.83;;;5.07;;
41059;SDS011;26811;53.160;8.202;2023-08-20T08:59:35;20.73;;;4.83;;
41059;SDS011;26811;53.160;8.202;2023-08-20T09:04:39;21.03;;;4.80;;
41059;SDS011;26811;53.160;8.202;2023-08-20T09:09:44;14.77;;;4.50;;
41059;SDS011;26811;53.160;8.202;2023-08-20T09:14:46;18.25;;;4.63;;
41059;SDS011;26811;53.160;8.202;2023-08-20T09:19:48;13.98;;;4.18;;
41059;SDS011;26811;53.160;8.202;2023-08-20T09:24:55;10.37;;;4.07;;
41059;SDS011;26811;53.160;8.202;2023-08-20T09:29:56;21.42;;;4.20;;
41059;SDS011;26811;53.160;8.202;2023-08-20T09:35:00;16.38;;;4.35;;
41059;SDS011;26811;53.160;8.202;2023-08-20T09:40:00;18.03;;;4.27;;
41059;SDS011;26811;53.160;8.202;2023-08-20T09:45:02;14.77;;;4.50;;
41059;SDS011;26811;53.160;8.202;2023-08-20T09:50:04;17.58;;;4.03;;
41059;SDS011;26811;53.160;8.202;2023-08-20T09:55:16;23.08;;;4.45;;
41059;SDS011;26811;53.160;8.202;2023-08-20T10:00:20;18.23;;;4.10;;
41059;SDS011;26811;53.160;8.202;2023-08-20T10:05:22;17.15;;;4.00;;
41059;SDS011;26811;53.160;8.202;2023-08-20T10:10:23;14.30;;;4.18;;
41059;SDS011;26811;53.160;8.202;2023-08-20T10:15:25;10.70;;;3.60;;
41059;SDS011;26811;53.160;8.202;2023-08-20T10:20:28;13.73;;;3.80;;
41059;SDS011;26811;53.160;8.202;2023-08-20T10:25:30;13.98;;;4.68;;
41059;SDS011;26811;53.160;8.202;2023-08-20T10:30:31;19.50;;;4.20;;
41059;SDS011;26811;53.160;8.202;2023-08-20T10:40:54;15.05;;;4.22;;
41059;SDS011;26811;53.160;8.202;2023-08-20T10:46:06;18.95;;;4.40;;
41059;SDS011;26811;53.160;8.202;2023-08-20T10:51:14;20.53;;;5.07;;
41059;SDS011;26811;53.160;8.202;2023-08-20T10:56:20;14.07;;;4.30;;
41059;SDS011;26811;53.160;8.202;2023-08-20T11:01:21;10.97;;;4.67;;
41059;SDS011;26811;53.160;8.202;2023-08-20T11:06:22;9.73;;;4.07;;
41059;SDS011;26811;53.160;8.202;2023-08-20T11:16:25;15.02;;;3.60;;
41059;SDS011;26811;53.160;8.202;2023-08-20T11:21:25;19.27;;;4.30;;
41059;SDS011;26811;53.160;8.202;2023-08-20T11:26:28;12.80;;;3.95;;
41059;SDS011;26811;53.160;8.202;2023-08-20T11:31:29;13.68;;;4.25;;
41059;SDS011;26811;53.160;8.202;2023-08-20T11:36:30;9.33;;;3.43;;
41059;SDS011;26811;53.160;8.202;2023-08-20T11:41:31;11.00;;;3.40;;
41059;SDS011;26811;53.160;8.202;2023-08-20T11:46:41;10.80;;;3.72;;
41059;SDS011;26811;53.160;8.202;2023-08-20T11:51:49;13.63;;;3.50;;
41059;SDS011;26811;53.160;8.202;2023-08-20T11:56:50;9.65;;;3.35;;
41059;SDS011;26811;53.160;8.202;2023-08-20T12:02:01;11.57;;;3.55;;
41059;SDS011;26811;53.160;8.202;2023-08-20T12:07:13;9.90;;;3.03;;
41059;SDS011;26811;53.160;8.202;2023-08-20T12:12:14;9.07;;;3.67;;
41059;SDS011;26811;53.160;8.202;2023-08-20T12:17:18;10.67;;;3.20;;
41059;SDS011;26811;53.160;8.202;2023-08-20T12:22:18;10.45;;;2.85;;
41059;SDS011;26811;53.160;8.202;2023-08-20T12:27:19;8.90;;;2.90;;
41059;SDS011;26811;53.160;8.202;2023-08-20T12:32:19;11.80;;;2.73;;
41059;SDS011;26811;53.160;8.202;2023-08-20T12:37:20;5.63;;;1.83;;
41059;SDS011;26811;53.160;8.202;2023-08-20T12:42:21;7.97;;;2.20;;
41059;SDS011;26811;53.160;8.202;2023-08-20T12:47:21;6.23;;;1.87;;
41059;SDS011;26811;53.160;8.202;2023-08-20T12:52:22;4.77;;;1.83;;
41059;SDS011;26811;53.160;8.202;2023-08-20T12:57:22;2.83;;;1.40;;
41059;SDS011;26811;53.160;8.202;2023-08-20T13:02:23;4.07;;;1.73;;
41059;SDS011;26811;53.160;8.202;2023-08-20T13:07:24;5.63;;;1.87;;
41059;SDS011;26811;53.160;8.202;2023-08-20T13:12:24;4.87;;;1.50;;
41059;SDS011;26811;53.160;8.202;2023-08-20T13:17:27;6.13;;;1.50;;
41059;SDS011;26811;53.160;8.202;2023-08-20T13:22:28;4.13;;;1.50;;
41059;SDS011;26811;53.160;8.202;2023-08-20T13:27:28;3.97;;;1.20;;
41059;SDS011;26811;53.160;8.202;2023-08-20T13:32:29;3.97;;;1.40;;
41059;SDS011;26811;53.160;8.202;2023-08-20T13:37:29;3.57;;;1.07;;
41059;SDS011;26811;53.160;8.202;2023-08-20T13:42:34;2.83;;;1.25;;
41059;SDS011;26811;53.160;8.202;2023-08-20T13:47:34;2.60;;;1.10;;
41059;SDS011;26811;53.160;8.202;2023-08-20T13:52:35;2.97;;;1.13;;
41059;SDS011;26811;53.160;8.202;2023-08-20T13:57:35;4.80;;;1.00;;
41059;SDS011;26811;53.160;8.202;2023-08-20T14:02:36;4.27;;;1.17;;
41059;SDS011;26811;53.160;8.202;2023-08-20T14:07:36;5.23;;;1.00;;
41059;SDS011;26811;53.160;8.202;2023-08-20T14:12:37;4.17;;;1.17;;
41059;SDS011;26811;53.160;8.202;2023-08-20T14:17:38;3.60;;;1.07;;
41059;SDS011;26811;53.160;8.202;2023-08-20T14:22:38;2.63;;;0.80;;
41059;SDS011;26811;53.160;8.202;2023-08-20T14:27:39;3.70;;;1.00;;
41059;SDS011;26811;53.160;8.202;2023-08-20T14:32:39;3.83;;;1.10;;
41059;SDS011;26811;53.160;8.202;2023-08-20T14:37:41;2.70;;;1.10;;
41059;SDS011;26811;53.160;8.202;2023-08-20T14:42:43;2.03;;;0.85;;
41059;SDS011;26811;53.160;8.202;2023-08-20T14:47:43;2.33;;;0.80;;
41059;SDS011;26811;53.160;8.202;2023-08-20T14:52:44;2.97;;;0.93;;
41059;SDS011;26811;53.160;8.202;2023-08-20T14:57:45;4.70;;;1.15;;
41059;SDS011;26811;53.160;8.202;2023-08-20T15:02:46;5.27;;;1.17;;
41059;SDS011;26811;53.160;8.202;2023-08-20T15:07:48;4.30;;;1.10;;
41059;SDS011;26811;53.160;8.202;2023-08-20T15:12:48;3.20;;;1.20;;
41059;SDS011;26811;53.160;8.202;2023-08-20T15:17:49;5.63;;;1.07;;
41059;SDS011;26811;53.160;8.202;2023-08-20T15:22:51;2.25;;;0.93;;
41059;SDS011;26811;53.160;8.202;2023-08-20T15:27:52;5.27;;;1.50;;
41059;SDS011;26811;53.160;8.202;2023-08-20T15:32:52;4.47;;;0.90;;
41059;SDS011;26811;53.160;8.202;2023-08-20T15:37:53;5.77;;;1.20;;
41059;SDS011;26811;53.160;8.202;2023-08-20T15:42:53;3.43;;;1.00;;
41059;SDS011;26811;53.160;8.202;2023-08-20T15:47:54;6.50;;;1.20;;
41059;SDS011;26811;53.160;8.202;2023-08-20T15:52:54;6.30;;;1.20;;
41059;SDS011;26811;53.160;8.202;2023-08-20T15:57:55;5.37;;;1.60;;
41059;SDS011;26811;53.160;8.202;2023-08-20T16:02:55;3.33;;;1.60;;
41059;SDS011;26811;53.160;8.202;2023-08-20T16:07:56;4.57;;;1.40;;
41059;SDS011;26811;53.160;8.202;2023-08-20T16:12:56;4.03;;;1.50;;
41059;SDS011;26811;53.160;8.202;2023-08-20T16:17:57;4.73;;;1.10;;
41059;SDS011;26811;53.160;8.202;2023-08-20T16:22:57;4.83;;;1.30;;
41059;SDS011;26811;53.160;8.202;2023-08-20T16:27:58;2.57;;;1.20;;
41059;SDS011;26811;53.160;8.202;2023-08-20T16:32:59;5.37;;;1.53;;
41059;SDS011;26811;53.160;8.202;2023-08-20T16:38:00;4.78;;;1.50;;
41059;SDS011;26811;53.160;8.202;2023-08-20T16:43:01;6.53;;;1.63;;
41059;SDS011;26811;53.160;8.202;2023-08-20T16:48:02;3.83;;;1.43;;
41059;SDS011;26811;53.160;8.202;2023-08-20T16:53:03;4.23;;;1.53;;
41059;SDS011;26811;53.160;8.202;2023-08-20T16:58:03;6.50;;;1.70;;
41059;SDS011;26811;53.160;8.202;2023-08-20T17:03:04;6.90;;;1.63;;
41059;SDS011;26811;53.160;8.202;2023-08-20T17:08:05;13.47;;;2.83;;
41059;SDS011;26811;53.160;8.202;2023-08-20T17:13:05;15.17;;;3.23;;
41059;SDS011;26811;53.160;8.202;2023-08-20T17:18:07;12.07;;;3.07;;
41059;SDS011;26811;53.160;8.202;2023-08-20T17:23:07;10.17;;;2.37;;
41059;SDS011;26811;53.160;8.202;2023-08-20T17:28:08;17.60;;;3.03;;
41059;SDS011;26811;53.160;8.202;2023-08-20T17:33:08;13.53;;;3.73;;
41059;SDS011;26811;53.160;8.202;2023-08-20T17:38:15;20.92;;;3.47;;
41059;SDS011;26811;53.160;8.202;2023-08-20T17:43:17;20.48;;;3.45;;
41059;SDS011;26811;53.160;8.202;2023-08-20T17:48:17;22.48;;;3.97;;
41059;SDS011;26811;53.160;8.202;2023-08-20T17:53:18;17.63;;;3.80;;
41059;SDS011;26811;53.160;8.202;2023-08-20T17:58:23;15.27;;;3.03;;
41059;SDS011;26811;53.160;8.202;2023-08-20T18:03:24;22.58;;;4.07;;
41059;SDS011;26811;53.160;8.202;2023-08-20T18:08:24;16.90;;;3.95;;
41059;SDS011;26811;53.160;8.202;2023-08-20T18:13:25;16.10;;;3.50;;
41059;SDS011;26811;53.160;8.202;2023-08-20T18:18:25;16.20;;;3.58;;
41059;SDS011;26811;53.160;8.202;2023-08-20T18:23:26;13.77;;;3.20;;
41059;SDS011;26811;53.160;8.202;2023-08-20T18:28:27;16.05;;;3.47;;
41059;SDS011;26811;53.160;8.202;2023-08-20T18:33:29;19.45;;;3.78;;
41059;SDS011;26811;53.160;8.202;2023-08-20T18:43:31;15.25;;;3.33;;
41059;SDS011;26811;53.160;8.202;2023-08-20T18:48:33;18.33;;;3.42;;
41059;SDS011;26811;53.160;8.202;2023-08-20T18:53:34;20.77;;;4.10;;
41059;SDS011;26811;53.160;8.202;2023-08-20T18:58:35;21.17;;;3.90;;
41059;SDS011;26811;53.160;8.202;2023-08-20T19:03:36;20.15;;;4.40;;
41059;SDS011;26811;53.160;8.202;2023-08-20T19:08:37;17.02;;;4.28;;
41059;SDS011;26811;53.160;8.202;2023-08-20T19:13:37;15.25;;;5.13;;
41059;SDS011;26811;53.160;8.202;2023-08-20T19:18:38;19.83;;;4.85;;
41059;SDS011;26811;53.160;8.202;2023-08-20T19:23:38;25.55;;;6.05;;
41059;SDS011;26811;53.160;8.202;2023-08-20T19:28:39;18.27;;;5.90;;
41059;SDS011;26811;53.160;8.202;2023-08-20T19:33:40;22.55;;;6.15;;
41059;SDS011;26811;53.160;8.202;2023-08-20T19:38:40;18.92;;;5.90;;
41059;SDS011;26811;53.160;8.202;2023-08-20T19:43:41;16.70;;;6.07;;
41059;SDS011;26811;53.160;8.202;2023-08-20T19:48:41;22.38;;;5.55;;
41059;SDS011;26811;53.160;8.202;2023-08-20T19:53:42;15.15;;;4.97;;
41059;SDS011;26811;53.160;8.202;2023-08-20T19:58:44;15.35;;;5.35;;
41059;SDS011;26811;53.160;8.202;2023-08-20T20:03:44;22.08;;;5.00;;
41059;SDS011;26811;53.160;8.202;2023-08-20T20:08:45;20.85;;;5.28;;
41059;SDS011;26811;53.160;8.202;2023-08-20T20:13:45;22.30;;;5.38;;
41059;SDS011;26811;53.160;8.202;2023-08-20T20:18:46;21.50;;;5.13;;
41059;SDS011;26811;53.160;8.202;2023-08-20T20:23:47;19.95;;;5.03;;
41059;SDS011;26811;53.160;8.202;2023-08-20T20:28:47;19.17;;;5.10;;
41059;SDS011;26811;53.160;8.202;2023-08-20T20:33:48;21.25;;;5.07;;
41059;SDS011;26811;53.160;8.202;2023-08-20T20:38:48;18.90;;;4.82;;
41059;SDS011;26811;53.160;8.202;2023-08-20T20:43:49;15.93;;;4.53;;
41059;SDS011;26811;53.160;8.202;2023-08-20T20:48:49;15.35;;;4.80;;
41059;SDS011;26811;53.160;8.202;2023-08-20T20:53:51;17.33;;;5.03;;
41059;SDS011;26811;53.160;8.202;2023-08-20T20:58:52;20.90;;;5.00;;
41059;SDS011;26811;53.160;8.202;2023-08-20T21:03:53;17.77;;;4.50;;
41059;SDS011;26811;53.160;8.202;2023-08-20T21:08:54;19.10;;;4.35;;
41059;SDS011;26811;53.160;8.202;2023-08-20T21:13:56;17.77;;;5.23;;
41059;SDS011;26811;53.160;8.202;2023-08-20T21:18:56;20.00;;;5.20;;
41059;SDS011;26811;53.160;8.202;2023-08-20T21:23:57;18.70;;;4.75;;
41059;SDS011;26811;53.160;8.202;2023-08-20T21:28:58;16.83;;;4.50;;
41059;SDS011;26811;53.160;8.202;2023-08-20T21:33:58;14.70;;;4.75;;
41059;SDS011;26811;53.160;8.202;2023-08-20T21:38:59;16.65;;;4.85;;
41059;SDS011;26811;53.160;8.202;2023-08-20T21:43:59;20.05;;;5.45;;
41059;SDS011;26811;53.160;8.202;2023-08-20T21:49:00;22.42;;;5.63;;
41059;SDS011;26811;53.160;8.202;2023-08-20T21:54:00;18.23;;;5.32;;
41059;SDS011;26811;53.160;8.202;2023-08-20T21:59:02;15.87;;;5.23;;
41059;SDS011;26811;53.160;8.202;2023-08-20T22:04:03;16.02;;;5.07;;
41059;SDS011;26811;53.160;8.202;2023-08-20T22:09:03;16.92;;;4.78;;
41059;SDS011;26811;53.160;8.202;2023-08-20T22:14:04;17.73;;;4.90;;
41059;SDS011;26811;53.160;8.202;2023-08-20T22:19:04;17.92;;;4.90;;
41059;SDS011;26811;53.160;8.202;2023-08-20T22:24:05;17.08;;;5.65;;
41059;SDS011;26811;53.160;8.202;2023-08-20T22:29:06;16.80;;;5.07;;
41059;SDS011;26811;53.160;8.202;2023-08-20T22:34:06;14.63;;;4.85;;
41059;SDS011;26811;53.160;8.202;2023-08-20T22:39:07;14.30;;;5.15;;
41059;SDS011;26811;53.160;8.202;2023-08-20T22:44:07;13.80;;;5.35;;
41059;SDS011;26811;53.160;8.202;2023-08-20T22:49:08;16.65;;;5.65;;
41059;SDS011;26811;53.160;8.202;2023-08-20T22:54:09;20.98;;;5.80;;
41059;SDS011;26811;53.160;8.202;2023-08-20T22:59:09;13.90;;;6.20;;
41059;SDS011;26811;53.160;8.202;2023-08-20T23:04:12;13.77;;;5.43;;
41059;SDS011;26811;53.160;8.202;2023-08-20T23:09:13;21.65;;;6.70;;
41059;SDS011;26811;53.160;8.202;2023-08-20T23:14:13;17.45;;;5.90;;
41059;SDS011;26811;53.160;8.202;2023-08-20T23:19:14;14.30;;;5.78;;
41059;SDS011;26811;53.160;8.202;2023-08-20T23:24:14;19.05;;;6.45;;
41059;SDS011;26811;53.160;8.202;2023-08-20T23:29:15;15.10;;;6.10;;
41059;SDS011;26811;53.160;8.202;2023-08-20T23:34:15;18.92;;;6.75;;
41059;SDS011;26811;53.160;8.202;2023-08-20T23:39:16;17.50;;;5.95;;
41059;SDS011;26811;53.160;8.202;2023-08-20T23:44:17;17.92;;;5.95;;
41059;SDS011;26811;53.160;8.202;2023-08-20T23:49:17;15.32;;;6.65;;
41059;SDS011;26811;53.160;8.202;2023-08-20T23:54:18;12.77;;;5.63;;
41059;SDS011;26811;53.160;8.202;2023-08-20T23:59:18;13.57;;;5.65;;
